createdAt,value
2022-09-22T00:01:31.367Z,19.65
2022-09-22T00:04:01.708Z,13.18
2022-09-22T00:06:33.523Z,9.20
2022-09-22T00:09:03.315Z,6.93
2022-09-22T00:11:33.534Z,4.57
2022-09-22T00:14:03.808Z,3.58
2022-09-22T00:16:36.610Z,3.88
2022-09-22T00:19:06.647Z,3.47
2022-09-22T00:21:36.004Z,3.55
2022-09-22T00:24:07.309Z,2.78
2022-09-22T00:26:36.110Z,3.22
2022-09-22T00:29:04.236Z,2.20
2022-09-22T00:31:31.949Z,2.70
2022-09-22T00:33:59.581Z,2.60
2022-09-22T00:36:28.823Z,3.15
2022-09-22T00:38:59.235Z,2.38
2022-09-22T00:41:30.242Z,2.85
2022-09-22T00:44:35.963Z,3.05
2022-09-22T00:47:14.651Z,2.65
2022-09-22T00:49:50.262Z,3.28
2022-09-22T00:52:22.471Z,2.92
2022-09-22T00:54:54.268Z,3.47
2022-09-22T00:57:25.110Z,3.53
2022-09-22T00:59:54.492Z,3.35
2022-09-22T01:02:22.354Z,2.83
2022-09-22T01:04:51.993Z,3.33
2022-09-22T01:07:21.123Z,3.17
2022-09-22T01:09:48.782Z,3.58
2022-09-22T01:12:17.963Z,3.05
2022-09-22T01:15:01.612Z,2.40
2022-09-22T01:17:37.111Z,2.63
2022-09-22T01:20:25.897Z,2.38
2022-09-22T01:23:25.213Z,2.35
2022-09-22T01:26:11.766Z,2.90
2022-09-22T01:29:04.601Z,3.67
2022-09-22T01:31:38.162Z,3.85
2022-09-22T01:34:09.585Z,3.95
2022-09-22T01:36:43.280Z,4.55
2022-09-22T01:39:18.485Z,4.03
2022-09-22T01:41:52.815Z,4.72
2022-09-22T01:44:27.438Z,4.20
2022-09-22T01:47:01.152Z,3.75
2022-09-22T01:49:33.639Z,4.45
2022-09-22T01:52:06.882Z,4.53
2022-09-22T01:54:39.180Z,4.40
2022-09-22T01:57:15.067Z,4.45
2022-09-22T01:59:47.850Z,4.10
2022-09-22T02:04:54.515Z,3.72
2022-09-22T02:07:26.108Z,4.47
2022-09-22T02:09:53.886Z,4.47
2022-09-22T02:12:21.673Z,3.85
2022-09-22T02:14:50.605Z,3.90
2022-09-22T02:17:19.746Z,4.00
2022-09-22T02:19:47.438Z,4.28
2022-09-22T02:22:15.393Z,4.95
2022-09-22T02:24:44.816Z,3.55
2022-09-22T02:27:15.797Z,4.97
2022-09-22T02:29:48.706Z,4.68
2022-09-22T02:32:18.418Z,4.35
2022-09-22T02:34:48.276Z,4.40
2022-09-22T02:37:23.345Z,4.32
2022-09-22T02:40:04.522Z,3.70
2022-09-22T02:42:37.827Z,4.47
2022-09-22T02:45:12.904Z,4.22
2022-09-22T02:47:44.353Z,4.35
2022-09-22T02:50:16.854Z,4.85
2022-09-22T02:52:44.371Z,4.95
2022-09-22T02:55:14.301Z,4.28
2022-09-22T02:57:41.816Z,4.22
2022-09-22T03:00:10.332Z,4.50
2022-09-22T03:02:38.047Z,3.55
2022-09-22T03:05:06.227Z,4.47
2022-09-22T03:07:35.085Z,3.33
2022-09-22T03:10:02.607Z,4.05
2022-09-22T03:12:30.338Z,3.72
2022-09-22T03:14:57.848Z,3.60
2022-09-22T03:17:25.398Z,3.45
2022-09-22T03:19:52.912Z,3.75
2022-09-22T03:22:20.413Z,3.67
2022-09-22T03:24:49.278Z,4.25
2022-09-22T03:27:16.835Z,5.10
2022-09-22T03:29:44.342Z,5.00
2022-09-22T03:32:11.808Z,5.85
2022-09-22T03:34:39.317Z,5.32
2022-09-22T03:37:06.811Z,5.43
2022-09-22T03:39:34.296Z,4.55
2022-09-22T03:42:03.099Z,5.10
2022-09-22T03:44:30.746Z,5.32
2022-09-22T03:46:58.680Z,4.13
2022-09-22T03:49:26.170Z,4.07
2022-09-22T03:51:54.403Z,4.50
2022-09-22T03:54:22.601Z,4.20
2022-09-22T03:56:50.114Z,4.57
2022-09-22T03:59:18.998Z,4.25
2022-09-22T04:01:47.261Z,5.07
2022-09-22T04:04:14.774Z,5.07
2022-09-22T04:06:42.302Z,5.57
2022-09-22T04:09:10.081Z,4.82
2022-09-22T04:11:37.562Z,5.45
2022-09-22T04:14:05.237Z,4.82
2022-09-22T04:16:34.163Z,4.97
2022-09-22T04:19:05.036Z,4.95
2022-09-22T04:21:32.600Z,5.13
2022-09-22T04:24:00.204Z,4.97
2022-09-22T04:26:27.812Z,3.83
2022-09-22T04:28:55.312Z,4.40
2022-09-22T04:31:23.011Z,4.32
2022-09-22T04:33:51.937Z,4.30
2022-09-22T04:36:19.712Z,4.78
2022-09-22T04:38:47.166Z,5.63
2022-09-22T04:41:15.722Z,6.32
2022-09-22T04:43:43.514Z,5.43
2022-09-22T04:46:11.118Z,4.60
2022-09-22T04:48:38.611Z,5.60
2022-09-22T04:51:07.442Z,5.65
2022-09-22T04:53:35.267Z,6.65
2022-09-22T04:56:03.033Z,6.25
2022-09-22T04:58:31.455Z,5.18
2022-09-22T05:01:03.386Z,4.45
2022-09-22T05:06:14.328Z,3.80
2022-09-22T05:08:41.827Z,4.78
2022-09-22T05:11:09.291Z,6.72
2022-09-22T05:13:38.365Z,4.32
2022-09-22T05:16:06.949Z,3.88
2022-09-22T05:18:34.697Z,4.75
2022-09-22T05:21:02.814Z,4.07
2022-09-22T05:23:32.214Z,5.22
2022-09-22T05:26:00.124Z,4.68
2022-09-22T05:28:27.628Z,4.43
2022-09-22T05:30:55.110Z,4.63
2022-09-22T05:33:22.620Z,4.50
2022-09-22T05:35:50.131Z,4.50
2022-09-22T05:38:17.607Z,4.47
2022-09-22T05:40:48.010Z,6.38
2022-09-22T05:43:16.182Z,5.10
2022-09-22T05:45:44.505Z,5.30
2022-09-22T05:48:12.165Z,4.80
2022-09-22T05:50:39.638Z,4.63
2022-09-22T05:53:10.205Z,4.53
2022-09-22T05:55:39.776Z,4.72
2022-09-22T05:58:11.711Z,5.05
2022-09-22T06:00:39.713Z,4.53
2022-09-22T06:03:07.580Z,5.38
2022-09-22T06:05:37.828Z,5.53
2022-09-22T06:08:07.830Z,5.00
2022-09-22T06:10:37.255Z,5.25
2022-09-22T06:13:06.790Z,5.93
2022-09-22T06:15:36.309Z,6.07
2022-09-22T06:18:06.878Z,6.10
2022-09-22T06:20:34.447Z,6.13
2022-09-22T06:23:02.005Z,5.68
2022-09-22T06:25:29.541Z,4.78
2022-09-22T06:28:01.934Z,4.93
2022-09-22T06:30:30.808Z,5.18
2022-09-22T06:33:00.041Z,5.03
2022-09-22T06:35:31.140Z,4.30
2022-09-22T06:37:59.227Z,4.47
2022-09-22T06:40:27.457Z,4.00
2022-09-22T06:42:58.119Z,3.92
2022-09-22T06:45:27.240Z,3.53
2022-09-22T06:48:00.478Z,3.78
2022-09-22T06:50:30.705Z,3.88
2022-09-22T06:53:00.198Z,3.80
2022-09-22T06:55:29.004Z,3.35
2022-09-22T06:57:57.568Z,3.30
2022-09-22T07:00:31.228Z,3.17
2022-09-22T07:03:06.216Z,3.50
2022-09-22T07:05:34.340Z,3.38
2022-09-22T07:08:02.036Z,3.72
2022-09-22T07:10:29.514Z,6.18
2022-09-22T07:13:00.221Z,6.07
2022-09-22T07:15:29.272Z,4.15
2022-09-22T07:17:57.146Z,4.50
2022-09-22T07:20:26.023Z,4.57
2022-09-22T07:23:00.627Z,4.45
2022-09-22T07:25:28.441Z,3.60
2022-09-22T07:36:29.356Z,7.18
2022-09-22T07:39:03.197Z,7.63
2022-09-22T07:41:32.578Z,9.88
2022-09-22T07:44:21.597Z,7.72
2022-09-22T07:46:49.258Z,5.25
2022-09-22T07:49:17.589Z,3.67
2022-09-22T07:51:45.070Z,4.05
2022-09-22T07:54:14.124Z,4.07
2022-09-22T07:56:43.657Z,2.95
2022-09-22T07:59:12.756Z,2.97
2022-09-22T08:01:44.362Z,1.90
2022-09-22T08:04:15.581Z,1.95
2022-09-22T08:06:43.742Z,1.05
2022-09-22T08:09:12.324Z,0.95
2022-09-22T08:11:48.454Z,0.63
2022-09-22T08:14:18.217Z,0.60
2022-09-22T08:16:46.776Z,0.47
2022-09-22T08:19:14.649Z,0.63
2022-09-22T08:21:48.947Z,0.43
2022-09-22T08:24:21.302Z,0.50
2022-09-22T08:26:52.377Z,0.43
2022-09-22T08:29:20.246Z,0.70
2022-09-22T08:31:49.312Z,0.47
2022-09-22T08:34:17.856Z,0.60
2022-09-22T08:36:47.264Z,0.55
2022-09-22T08:39:15.839Z,0.70
2022-09-22T08:41:50.419Z,0.50
2022-09-22T08:44:23.832Z,1.00
2022-09-22T08:46:53.812Z,0.77
2022-09-22T08:49:44.150Z,0.60
2022-09-22T08:52:20.011Z,0.90
2022-09-22T08:54:47.666Z,0.80
2022-09-22T08:57:41.070Z,1.00
2022-09-22T09:00:14.661Z,0.90
2022-09-22T09:02:46.654Z,0.60
2022-09-22T09:05:49.569Z,0.80
2022-09-22T09:10:55.953Z,0.63
2022-09-22T09:13:44.236Z,0.88
2022-09-22T09:16:34.242Z,0.77
2022-09-22T09:19:11.975Z,1.00
2022-09-22T09:21:46.015Z,0.90
2022-09-22T09:27:13.696Z,1.00
2022-09-22T09:29:48.750Z,0.68
2022-09-22T09:32:23.747Z,1.15
2022-09-22T09:34:55.158Z,1.48
2022-09-22T09:39:52.404Z,0.60
2022-09-22T09:42:26.458Z,0.88
2022-09-22T09:44:55.395Z,0.50
2022-09-22T09:47:36.567Z,0.70
2022-09-22T09:50:04.613Z,0.63
2022-09-22T09:52:32.200Z,0.75
2022-09-22T09:55:01.872Z,0.60
2022-09-22T09:57:30.022Z,0.63
2022-09-22T10:00:32.979Z,0.55
2022-09-22T10:03:20.952Z,0.32
2022-09-22T10:06:02.652Z,0.40
2022-09-22T10:08:34.186Z,0.40
2022-09-22T10:11:02.020Z,0.50
2022-09-22T10:13:32.759Z,0.47
2022-09-22T10:16:07.101Z,0.80
2022-09-22T10:18:40.244Z,0.30
2022-09-22T10:21:15.705Z,0.40
2022-09-22T10:23:44.773Z,0.50
2022-09-22T10:26:19.445Z,0.40
2022-09-22T10:29:06.721Z,0.40
2022-09-22T10:31:38.207Z,0.35
2022-09-22T10:34:25.234Z,0.50
2022-09-22T10:36:52.904Z,0.43
2022-09-22T10:39:20.922Z,0.55
2022-09-22T10:41:50.081Z,1.13
2022-09-22T10:44:38.745Z,0.40
2022-09-22T10:47:26.728Z,0.90
2022-09-22T10:50:21.892Z,0.43
2022-09-22T10:52:56.484Z,0.80
2022-09-22T10:55:31.154Z,1.20
2022-09-22T10:58:36.592Z,0.68
2022-09-22T11:01:19.974Z,0.63
2022-09-22T11:04:17.784Z,0.60
2022-09-22T11:07:19.051Z,0.73
2022-09-22T11:10:09.443Z,1.10
2022-09-22T11:12:47.987Z,0.80
2022-09-22T11:15:40.223Z,0.68
2022-09-22T11:18:21.610Z,0.52
2022-09-22T11:23:46.993Z,0.50
2022-09-22T11:26:33.785Z,0.60
2022-09-22T11:29:27.885Z,0.60
2022-09-22T11:32:06.110Z,1.02
2022-09-22T11:35:04.144Z,0.98
2022-09-22T11:37:43.986Z,0.88
2022-09-22T11:40:34.087Z,0.60
2022-09-22T11:43:16.639Z,1.65
2022-09-22T11:45:54.095Z,0.98
2022-09-22T11:48:35.865Z,0.50
2022-09-22T11:51:24.248Z,0.77
2022-09-22T11:54:21.434Z,0.65
2022-09-22T11:56:53.339Z,1.20
2022-09-22T11:59:31.958Z,0.65
2022-09-22T12:02:04.654Z,0.70
2022-09-22T12:04:38.090Z,1.15
2022-09-22T12:07:13.678Z,0.85
2022-09-22T12:09:47.036Z,0.63
2022-09-22T12:12:19.439Z,0.77
2022-09-22T12:14:56.167Z,1.02
2022-09-22T12:17:30.269Z,0.77
2022-09-22T12:20:08.664Z,1.20
2022-09-22T12:22:54.962Z,0.65
2022-09-22T12:25:48.629Z,0.75
2022-09-22T12:28:20.699Z,0.80
2022-09-22T12:31:04.983Z,0.60
2022-09-22T12:33:34.849Z,0.80
2022-09-22T12:36:03.901Z,0.70
2022-09-22T12:38:32.265Z,0.98
2022-09-22T12:41:04.247Z,0.65
2022-09-22T12:43:36.237Z,0.55
2022-09-22T12:46:13.730Z,0.80
2022-09-22T12:48:45.967Z,0.73
2022-09-22T12:56:46.413Z,0.70
2022-09-22T12:59:56.385Z,0.70
2022-09-22T13:02:30.937Z,0.95
2022-09-22T13:05:37.127Z,1.38
2022-09-22T13:08:04.908Z,0.63
2022-09-22T13:10:42.456Z,0.90
2022-09-22T13:13:11.215Z,0.70
2022-09-22T13:15:59.448Z,0.70
2022-09-22T13:18:33.221Z,0.70
2022-09-22T13:21:02.007Z,1.00
2022-09-22T13:23:30.595Z,0.88
2022-09-22T13:26:06.922Z,0.47
2022-09-22T13:28:34.809Z,1.10
2022-09-22T13:31:06.420Z,0.70
2022-09-22T13:33:36.137Z,0.60
2022-09-22T13:36:06.938Z,1.02
2022-09-22T13:46:43.927Z,0.85
2022-09-22T13:49:16.884Z,0.77
2022-09-22T13:51:49.242Z,0.43
2022-09-22T13:56:49.114Z,0.75
2022-09-22T13:59:18.520Z,0.60
2022-09-22T14:01:52.696Z,1.02
2022-09-22T14:04:25.463Z,0.70
2022-09-22T14:06:57.783Z,0.70
2022-09-22T14:11:53.710Z,0.80
2022-09-22T14:14:24.096Z,0.60
2022-09-22T14:16:57.300Z,0.70
2022-09-22T14:19:29.142Z,0.82
2022-09-22T14:21:58.556Z,0.70
2022-09-22T14:24:27.253Z,0.60
2022-09-22T14:27:00.256Z,0.93
2022-09-22T14:29:33.127Z,0.60
2022-09-22T14:32:12.675Z,1.05
2022-09-22T14:34:40.585Z,1.65
2022-09-22T14:37:16.507Z,1.10
2022-09-22T14:39:45.719Z,1.42
2022-09-22T14:42:22.216Z,1.00
2022-09-22T14:44:51.256Z,0.80
2022-09-22T14:47:25.667Z,0.57
2022-09-22T14:50:18.828Z,0.68
2022-09-22T14:52:56.402Z,0.70
2022-09-22T14:55:35.890Z,0.77
2022-09-22T14:58:06.511Z,0.38
2022-09-22T15:00:52.274Z,0.80
2022-09-22T15:03:25.735Z,0.60
2022-09-22T15:05:53.554Z,0.65
2022-09-22T15:08:27.725Z,0.57
2022-09-22T15:10:57.074Z,0.80
2022-09-22T15:13:38.829Z,0.60
2022-09-22T15:16:07.456Z,0.82
2022-09-22T15:18:36.352Z,0.80
2022-09-22T15:21:10.184Z,0.60
2022-09-22T15:23:41.301Z,0.70
2022-09-22T15:26:16.870Z,0.90
2022-09-22T15:28:47.732Z,1.00
2022-09-22T15:31:22.412Z,0.82
2022-09-22T15:33:51.326Z,0.70
2022-09-22T15:36:21.000Z,0.50
2022-09-22T15:38:49.142Z,0.80
2022-09-22T15:41:17.162Z,1.00
2022-09-22T15:43:44.889Z,0.90
2022-09-22T15:46:28.517Z,1.38
2022-09-22T15:49:02.918Z,0.95
2022-09-22T15:51:31.579Z,1.10
2022-09-22T15:53:59.400Z,1.10
2022-09-22T15:56:29.536Z,0.98
2022-09-22T15:59:00.827Z,0.90
2022-09-22T16:01:29.407Z,0.60
2022-09-22T16:04:00.113Z,0.88
2022-09-22T16:06:29.504Z,0.60
2022-09-22T16:08:58.452Z,0.77
2022-09-22T16:11:29.545Z,1.02
2022-09-22T16:14:00.521Z,0.88
2022-09-22T16:16:29.527Z,1.00
2022-09-22T16:18:57.115Z,0.90
2022-09-22T16:21:27.037Z,0.70
2022-09-22T16:23:59.540Z,0.60
2022-09-22T16:26:31.804Z,0.65
2022-09-22T16:29:00.032Z,1.00
2022-09-22T16:31:27.685Z,0.95
2022-09-22T16:33:56.207Z,0.98
2022-09-22T16:36:26.015Z,0.98
2022-09-22T16:38:54.235Z,0.95
2022-09-22T16:41:25.572Z,0.95
2022-09-22T16:43:54.412Z,1.05
2022-09-22T16:46:28.822Z,1.00
2022-09-22T16:48:58.500Z,0.80
2022-09-22T16:51:26.026Z,1.98
2022-09-22T16:53:54.182Z,1.70
2022-09-22T16:56:24.273Z,1.30
2022-09-22T16:58:52.575Z,1.67
2022-09-22T17:01:20.493Z,1.48
2022-09-22T17:03:49.935Z,1.50
2022-09-22T17:06:25.218Z,1.40
2022-09-22T17:08:53.851Z,1.55
2022-09-22T17:11:29.542Z,1.30
2022-09-22T17:14:01.350Z,1.27
2022-09-22T17:16:30.666Z,1.23
2022-09-22T17:19:02.415Z,1.25
2022-09-22T17:21:34.219Z,1.45
2022-09-22T17:24:03.888Z,1.33
2022-09-22T17:26:35.163Z,1.80
2022-09-22T17:29:02.968Z,1.33
2022-09-22T17:31:31.892Z,1.90
2022-09-22T17:33:59.684Z,2.05
2022-09-22T17:36:28.662Z,2.40
2022-09-22T17:38:58.569Z,2.00
2022-09-22T17:41:27.746Z,1.60
2022-09-22T17:43:57.625Z,1.88
2022-09-22T17:49:34.452Z,2.47
2022-09-22T17:52:29.861Z,1.92
2022-09-22T17:55:11.681Z,2.15
2022-09-22T17:57:40.908Z,2.10
2022-09-22T18:00:13.288Z,1.90
2022-09-22T18:02:41.068Z,2.10
2022-09-22T18:05:10.958Z,3.05
2022-09-22T18:07:40.172Z,2.88
2022-09-22T18:10:09.654Z,3.28
2022-09-22T18:12:37.251Z,3.10
2022-09-22T18:15:05.909Z,3.17
2022-09-22T18:17:41.572Z,3.60
2022-09-22T18:20:10.034Z,4.15
2022-09-22T18:22:38.056Z,3.97
2022-09-22T18:25:08.886Z,4.38
2022-09-22T18:27:37.262Z,4.90
2022-09-22T18:30:05.460Z,4.15
2022-09-22T18:32:34.796Z,4.28
2022-09-22T18:35:02.461Z,4.13
2022-09-22T18:37:29.960Z,4.47
2022-09-22T18:39:57.510Z,4.25
2022-09-22T18:42:27.498Z,4.72
2022-09-22T18:44:55.008Z,5.00
2022-09-22T18:47:23.351Z,6.72
2022-09-22T18:49:52.358Z,6.40
2022-09-22T18:52:23.002Z,5.90
2022-09-22T18:54:53.114Z,4.68
2022-09-22T18:57:21.072Z,5.20
2022-09-22T18:59:50.771Z,4.90
2022-09-22T19:02:22.865Z,3.83
2022-09-22T19:04:52.203Z,4.28
2022-09-22T19:07:41.625Z,6.10
2022-09-22T19:10:11.069Z,7.15
2022-09-22T19:12:39.546Z,9.15
2022-09-22T19:15:13.379Z,8.52
2022-09-22T19:17:43.930Z,7.88
2022-09-22T19:20:14.905Z,7.20
2022-09-22T19:22:42.701Z,8.05
2022-09-22T19:25:11.465Z,11.75
2022-09-22T19:27:39.712Z,7.22
2022-09-22T19:30:08.481Z,8.48
2022-09-22T19:32:36.524Z,6.45
2022-09-22T19:35:04.343Z,7.20
2022-09-22T19:37:34.725Z,5.60
2022-09-22T19:40:02.562Z,5.32
2022-09-22T19:42:30.081Z,5.20
2022-09-22T19:44:57.675Z,4.45
2022-09-22T19:47:25.276Z,4.50
2022-09-22T19:49:52.949Z,4.53
2022-09-22T19:52:20.502Z,4.75
2022-09-22T19:54:49.481Z,4.05
2022-09-22T19:57:16.995Z,3.65
2022-09-22T19:59:44.891Z,3.90
2022-09-22T20:02:13.596Z,3.78
2022-09-22T20:08:04.689Z,3.25
2022-09-22T20:10:35.552Z,3.70
2022-09-22T20:13:23.344Z,4.18
2022-09-22T20:15:51.085Z,3.97
2022-09-22T20:18:22.216Z,3.60
2022-09-22T20:20:51.367Z,3.80
2022-09-22T20:23:21.668Z,3.70
2022-09-22T20:26:06.279Z,3.55
2022-09-22T20:28:33.809Z,4.13
2022-09-22T20:31:10.824Z,5.15
2022-09-22T20:33:38.978Z,4.03
2022-09-22T20:36:07.283Z,4.10
2022-09-22T20:38:35.261Z,3.60
2022-09-22T20:41:04.486Z,4.15
2022-09-22T20:43:32.111Z,3.40
2022-09-22T20:46:02.146Z,3.70
2022-09-22T20:48:30.262Z,4.22
2022-09-22T20:50:58.810Z,4.00
2022-09-22T20:53:27.106Z,3.70
2022-09-22T20:56:01.367Z,4.10
2022-09-22T20:58:31.626Z,3.92
2022-09-22T21:00:59.718Z,3.75
2022-09-22T21:03:28.964Z,3.80
2022-09-22T21:06:00.463Z,4.13
2022-09-22T21:08:45.948Z,4.32
2022-09-22T21:11:14.303Z,3.42
2022-09-22T21:13:43.465Z,3.60
2022-09-22T21:16:13.745Z,3.45
2022-09-22T21:18:41.954Z,3.70
2022-09-22T21:21:10.007Z,4.15
2022-09-22T21:23:37.835Z,4.10
2022-09-22T21:26:08.241Z,3.20
2022-09-22T21:28:36.243Z,3.42
2022-09-22T21:31:07.674Z,3.40
2022-09-22T21:33:35.769Z,3.55
2022-09-22T21:36:05.251Z,3.20
2022-09-22T21:38:33.231Z,3.47
2022-09-22T21:41:01.464Z,3.75
2022-09-22T21:43:29.899Z,3.50
2022-09-22T21:46:05.232Z,3.75
2022-09-22T21:48:36.489Z,3.40
2022-09-22T21:51:06.644Z,3.67
2022-09-22T21:53:36.444Z,3.53
2022-09-22T21:56:06.357Z,3.00
2022-09-22T21:58:36.548Z,3.40
2022-09-22T22:01:07.828Z,3.25
2022-09-22T22:03:40.154Z,3.42
2022-09-22T22:06:12.183Z,3.08
2022-09-22T22:08:42.357Z,3.20
2022-09-22T22:11:12.295Z,3.15
2022-09-22T22:13:42.289Z,3.40
2022-09-22T22:16:13.622Z,3.55
2022-09-22T22:18:43.319Z,3.50
2022-09-22T22:21:12.753Z,3.88
2022-09-22T22:23:42.584Z,3.00
2022-09-22T22:26:13.063Z,3.10
2022-09-22T22:28:42.153Z,3.60
2022-09-22T22:31:12.113Z,3.35
2022-09-22T22:33:42.964Z,4.13
2022-09-22T22:36:13.647Z,3.25
2022-09-22T22:38:42.407Z,3.80
2022-09-22T22:41:11.785Z,4.10
2022-09-22T22:43:40.152Z,4.22
2022-09-22T22:46:09.282Z,4.95
2022-09-22T22:48:37.512Z,4.47
2022-09-22T22:51:11.713Z,3.80
2022-09-22T22:53:39.547Z,4.53
2022-09-22T22:56:08.967Z,3.88
2022-09-22T22:58:39.145Z,4.15
2022-09-22T23:01:10.158Z,4.22
2022-09-22T23:03:41.373Z,4.35
2022-09-22T23:06:11.649Z,4.90
2022-09-22T23:08:39.971Z,4.57
2022-09-22T23:11:11.558Z,4.93
2022-09-22T23:13:41.569Z,6.00
2022-09-22T23:16:11.711Z,5.68
2022-09-22T23:18:42.277Z,5.78
2022-09-22T23:21:14.322Z,5.25
2022-09-22T23:23:43.580Z,5.35
2022-09-22T23:26:12.921Z,4.63
2022-09-22T23:28:42.232Z,5.38
2022-09-22T23:31:11.468Z,4.65
2022-09-22T23:33:40.980Z,4.95
2022-09-22T23:36:13.148Z,5.25
2022-09-22T23:38:41.432Z,4.20
2022-09-22T23:41:09.201Z,4.05
2022-09-22T23:43:37.935Z,3.63
2022-09-22T23:46:07.525Z,3.33
2022-09-22T23:48:37.184Z,3.03
2022-09-22T23:51:05.271Z,3.75
2022-09-22T23:53:36.249Z,2.47
2022-09-22T23:56:05.582Z,3.00
2022-09-22T23:58:33.198Z,3.28
